sensor_id;sensor_type;location;lat;lon;timestamp;pressure;altitude;pressure_sealevel;temperature;humidity
38939;BME280;24211;49.980;19.776;2023-11-21T00:00:01;98566.41;;;8.49;100.00
38939;BME280;24211;49.980;19.776;2023-11-21T00:02:58;98561.09;;;8.49;100.00
38939;BME280;24211;49.980;19.776;2023-11-21T00:05:26;98568.06;;;8.50;100.00
38939;BME280;24211;49.980;19.776;2023-11-21T00:07:53;98573.16;;;8.51;100.00
38939;BME280;24211;49.980;19.776;2023-11-21T00:10:21;98569.22;;;8.54;100.00
38939;BME280;24211;49.980;19.776;2023-11-21T00:12:48;98567.56;;;8.53;100.00
38939;BME280;24211;49.980;19.776;2023-11-21T00:15:16;98569.22;;;8.54;100.00
38939;BME280;24211;49.980;19.776;2023-11-21T00:17:53;98584.13;;;8.55;100.00
38939;BME280;24211;49.980;19.776;2023-11-21T00:20:21;98574.53;;;8.54;100.00
38939;BME280;24211;49.980;19.776;2023-11-21T00:22:49;98581.47;;;8.55;100.00
38939;BME280;24211;49.980;19.776;2023-11-21T00:25:16;98590.50;;;8.54;100.00
38939;BME280;24211;49.980;19.776;2023-11-21T00:27:48;98592.13;;;8.55;100.00
38939;BME280;24211;49.980;19.776;2023-11-21T00:30:23;98592.13;;;8.55;100.00
38939;BME280;24211;49.980;19.776;2023-11-21T00:32:50;98592.72;;;8.57;100.00
38939;BME280;24211;49.980;19.776;2023-11-21T00:35:19;98595.38;;;8.57;100.00
38939;BME280;24211;49.980;19.776;2023-11-21T00:37:46;98587.41;;;8.57;100.00
38939;BME280;24211;49.980;19.776;2023-11-21T00:40:15;98588.44;;;8.56;100.00
38939;BME280;24211;49.980;19.776;2023-11-21T00:42:43;98590.28;;;8.55;100.00
38939;BME280;24211;49.980;19.776;2023-11-21T00:45:12;98590.06;;;8.57;100.00
38939;BME280;24211;49.980;19.776;2023-11-21T00:47:44;98588.44;;;8.56;100.00
38939;BME280;24211;49.980;19.776;2023-11-21T00:50:11;98587.59;;;8.55;100.00
38939;BME280;24211;49.980;19.776;2023-11-21T00:52:38;98579.88;;;8.54;100.00
38939;BME280;24211;49.980;19.776;2023-11-21T00:55:06;98586.78;;;8.55;100.00
38939;BME280;24211;49.980;19.776;2023-11-21T00:57:35;98594.69;;;8.50;100.00
38939;BME280;24211;49.980;19.776;2023-11-21T01:00:03;98594.69;;;8.50;100.00
38939;BME280;24211;49.980;19.776;2023-11-21T01:02:48;98592.47;;;8.47;100.00
38939;BME280;24211;49.980;19.776;2023-11-21T01:05:19;98585.75;;;8.44;100.00
38939;BME280;24211;49.980;19.776;2023-11-21T01:08:06;98588.19;;;8.46;100.00
38939;BME280;24211;49.980;19.776;2023-11-21T01:10:33;98597.78;;;8.47;100.00
38939;BME280;24211;49.980;19.776;2023-11-21T01:13:02;98589.81;;;8.47;100.00
38939;BME280;24211;49.980;19.776;2023-11-21T01:15:33;98590.38;;;8.49;100.00
38939;BME280;24211;49.980;19.776;2023-11-21T01:18:01;98584.03;;;8.50;100.00
38939;BME280;24211;49.980;19.776;2023-11-21T01:20:29;98577.66;;;8.51;100.00
38939;BME280;24211;49.980;19.776;2023-11-21T01:22:57;98573.97;;;8.52;100.00
38939;BME280;24211;49.980;19.776;2023-11-21T01:25:25;98579.50;;;8.50;100.00
38939;BME280;24211;49.980;19.776;2023-11-21T01:27:58;98581.38;;;8.50;100.00
38939;BME280;24211;49.980;19.776;2023-11-21T01:30:30;98578.72;;;8.50;100.00
38939;BME280;24211;49.980;19.776;2023-11-21T01:32:59;98588.53;;;8.49;100.00
38939;BME280;24211;49.980;19.776;2023-11-21T01:35:27;98582.41;;;8.49;100.00
38939;BME280;24211;49.980;19.776;2023-11-21T01:37:57;98583.22;;;8.49;100.00
38939;BME280;24211;49.980;19.776;2023-11-21T01:40:26;98582.16;;;8.50;100.00
38939;BME280;24211;49.980;19.776;2023-11-21T01:42:58;98584.03;;;8.50;100.00
38939;BME280;24211;49.980;19.776;2023-11-21T01:45:25;98588.53;;;8.49;100.00
38939;BME280;24211;49.980;19.776;2023-11-21T01:47:54;98591.41;;;8.48;100.00
38939;BME280;24211;49.980;19.776;2023-11-21T01:50:27;98582.41;;;8.49;100.00
38939;BME280;24211;49.980;19.776;2023-11-21T01:53:02;98590.38;;;8.49;100.00
38939;BME280;24211;49.980;19.776;2023-11-21T01:55:41;98589.81;;;8.47;100.00
38939;BME280;24211;49.980;19.776;2023-11-21T01:58:15;98592.91;;;8.44;100.00
38939;BME280;24211;49.980;19.776;2023-11-21T02:00:51;98587.03;;;8.42;100.00
38939;BME280;24211;49.980;19.776;2023-11-21T02:03:21;98592.91;;;8.44;100.00
38939;BME280;24211;49.980;19.776;2023-11-21T02:05:48;98593.94;;;8.43;100.00
38939;BME280;24211;49.980;19.776;2023-11-21T02:08:25;98596.84;;;8.41;100.00
38939;BME280;24211;49.980;19.776;2023-11-21T02:10:52;98600.53;;;8.40;100.00
38939;BME280;24211;49.980;19.776;2023-11-21T02:13:19;98601.34;;;8.41;100.00
38939;BME280;24211;49.980;19.776;2023-11-21T02:15:46;98598.50;;;8.42;100.00
38939;BME280;24211;49.980;19.776;2023-11-21T02:18:18;98594.88;;;8.37;100.00
38939;BME280;24211;49.980;19.776;2023-11-21T02:20:56;98591.16;;;8.38;100.00
38939;BME280;24211;49.980;19.776;2023-11-21T02:23:24;98601.03;;;8.37;100.00
38939;BME280;24211;49.980;19.776;2023-11-21T02:26:01;98594.88;;;8.37;100.00
38939;BME280;24211;49.980;19.776;2023-11-21T02:28:40;98598.34;;;8.37;100.00
38939;BME280;24211;49.980;19.776;2023-11-21T02:31:53;98593.81;;;8.38;100.00
38939;BME280;24211;49.980;19.776;2023-11-21T02:34:27;98593.25;;;8.36;100.00
38939;BME280;24211;49.980;19.776;2023-11-21T02:36:55;98595.91;;;8.36;100.00
38939;BME280;24211;49.980;19.776;2023-11-21T02:39:22;98596.97;;;8.35;100.00
38939;BME280;24211;49.980;19.776;2023-11-21T02:41:53;98590.81;;;8.34;100.00
38939;BME280;24211;49.980;19.776;2023-11-21T02:44:24;98596.16;;;8.34;100.00
38939;BME280;24211;49.980;19.776;2023-11-21T02:46:51;98591.06;;;8.33;100.00
38939;BME280;24211;49.980;19.776;2023-11-21T02:49:23;98598.69;;;8.29;100.00
38939;BME280;24211;49.980;19.776;2023-11-21T02:51:51;98592.53;;;8.29;100.00
38939;BME280;24211;49.980;19.776;2023-11-21T02:54:19;98591.97;;;8.27;100.00
38939;BME280;24211;49.980;19.776;2023-11-21T02:56:46;98602.00;;;8.25;100.00
38939;BME280;24211;49.980;19.776;2023-11-21T02:59:14;98603.25;;;8.22;100.00
38939;BME280;24211;49.980;19.776;2023-11-21T03:01:45;98602.44;;;8.22;100.00
38939;BME280;24211;49.980;19.776;2023-11-21T03:04:19;98614.72;;;8.23;100.00
38939;BME280;24211;49.980;19.776;2023-11-21T03:06:51;98602.44;;;8.22;100.00
38939;BME280;24211;49.980;19.776;2023-11-21T03:09:20;98605.34;;;8.20;100.00
38939;BME280;24211;49.980;19.776;2023-11-21T03:11:51;98612.50;;;8.20;100.00
38939;BME280;24211;49.980;19.776;2023-11-21T03:14:20;98610.88;;;8.19;100.00
38939;BME280;24211;49.980;19.776;2023-11-21T03:16:56;98615.16;;;8.20;100.00
38939;BME280;24211;49.980;19.776;2023-11-21T03:19:24;98619.09;;;8.17;100.00
38939;BME280;24211;49.980;19.776;2023-11-21T03:21:53;98617.69;;;8.15;100.00
38939;BME280;24211;49.980;19.776;2023-11-21T03:24:26;98608.66;;;8.16;100.00
38939;BME280;24211;49.980;19.776;2023-11-21T03:26:53;98613.53;;;8.19;100.00
38939;BME280;24211;49.980;19.776;2023-11-21T03:29:34;98608.66;;;8.16;100.00
38939;BME280;24211;49.980;19.776;2023-11-21T03:32:02;98610.72;;;8.14;100.00
38939;BME280;24211;49.980;19.776;2023-11-21T03:34:29;98621.16;;;8.15;100.00
38939;BME280;24211;49.980;19.776;2023-11-21T03:36:57;98620.34;;;8.15;100.00
38939;BME280;24211;49.980;19.776;2023-11-21T03:39:39;98621.38;;;8.14;100.00
38939;BME280;24211;49.980;19.776;2023-11-21T03:42:09;98625.91;;;8.13;100.00
38939;BME280;24211;49.980;19.776;2023-11-21T03:44:44;98628.78;;;8.12;100.00
38939;BME280;24211;49.980;19.776;2023-11-21T03:47:13;98626.13;;;8.12;100.00
38939;BME280;24211;49.980;19.776;2023-11-21T03:49:44;98626.13;;;8.12;100.00
38939;BME280;24211;49.980;19.776;2023-11-21T03:52:15;98621.84;;;8.11;100.00
38939;BME280;24211;49.980;19.776;2023-11-21T03:54:43;98629.84;;;8.11;100.00
38939;BME280;24211;49.980;19.776;2023-11-21T03:57:11;98628.19;;;8.10;100.00
38939;BME280;24211;49.980;19.776;2023-11-21T03:59:42;98630.41;;;8.13;100.00
38939;BME280;24211;49.980;19.776;2023-11-21T04:02:10;98626.69;;;8.14;100.00
38939;BME280;24211;49.980;19.776;2023-11-21T04:04:39;98633.06;;;8.13;100.00
38939;BME280;24211;49.980;19.776;2023-11-21T04:07:24;98635.50;;;8.14;100.00
38939;BME280;24211;49.980;19.776;2023-11-21T04:09:57;98637.94;;;8.16;100.00
38939;BME280;24211;49.980;19.776;2023-11-21T04:12:28;98635.25;;;8.16;100.00
38939;BME280;24211;49.980;19.776;2023-11-21T04:14:55;98641.41;;;8.16;100.00
38939;BME280;24211;49.980;19.776;2023-11-21T04:17:22;98636.91;;;8.17;100.00
38939;BME280;24211;49.980;19.776;2023-11-21T04:19:51;98635.25;;;8.16;100.00
38939;BME280;24211;49.980;19.776;2023-11-21T04:22:19;98632.03;;;8.14;100.00
38939;BME280;24211;49.980;19.776;2023-11-21T04:25:15;98632.50;;;8.11;100.00
38939;BME280;24211;49.980;19.776;2023-11-21T04:27:55;98635.38;;;8.09;100.00
38939;BME280;24211;49.980;19.776;2023-11-21T04:30:22;98632.50;;;8.11;100.00
38939;BME280;24211;49.980;19.776;2023-11-21T04:33:14;98629.69;;;8.06;100.00
38939;BME280;24211;49.980;19.776;2023-11-21T04:35:44;98630.47;;;8.06;100.00
38939;BME280;24211;49.980;19.776;2023-11-21T04:38:14;98642.38;;;8.04;100.00
38939;BME280;24211;49.980;19.776;2023-11-21T04:40:42;98643.44;;;8.03;100.00
38939;BME280;24211;49.980;19.776;2023-11-21T04:43:09;98644.47;;;8.02;100.00
38939;BME280;24211;49.980;19.776;2023-11-21T04:45:37;98646.53;;;8.00;100.00
38939;BME280;24211;49.980;19.776;2023-11-21T04:48:04;98641.22;;;8.00;100.00
38939;BME280;24211;49.980;19.776;2023-11-21T04:50:34;98648.63;;;7.98;100.00
38939;BME280;24211;49.980;19.776;2023-11-21T04:53:03;98652.31;;;7.97;100.00
38939;BME280;24211;49.980;19.776;2023-11-21T04:55:30;98658.44;;;7.97;100.00
38939;BME280;24211;49.980;19.776;2023-11-21T04:57:58;98653.34;;;7.96;100.00
38939;BME280;24211;49.980;19.776;2023-11-21T05:00:26;98641.53;;;7.91;100.00
38939;BME280;24211;49.980;19.776;2023-11-21T05:02:53;98653.22;;;7.90;100.00
38939;BME280;24211;49.980;19.776;2023-11-21T05:05:21;98650.56;;;7.90;100.00
38939;BME280;24211;49.980;19.776;2023-11-21T05:07:49;98653.81;;;7.93;100.00
38939;BME280;24211;49.980;19.776;2023-11-21T05:10:17;98658.09;;;7.94;100.00
38939;BME280;24211;49.980;19.776;2023-11-21T05:12:44;98654.97;;;7.97;100.00
38939;BME280;24211;49.980;19.776;2023-11-21T05:15:15;98660.28;;;7.97;100.00
38939;BME280;24211;49.980;19.776;2023-11-21T05:17:43;98661.94;;;7.98;100.00
38939;BME280;24211;49.980;19.776;2023-11-21T05:20:20;98660.88;;;7.99;100.00
38939;BME280;24211;49.980;19.776;2023-11-21T05:22:48;98662.50;;;8.00;100.00
38939;BME280;24211;49.980;19.776;2023-11-21T05:25:16;98668.84;;;7.99;100.00
38939;BME280;24211;49.980;19.776;2023-11-21T05:27:47;98676.84;;;7.99;100.00
38939;BME280;24211;49.980;19.776;2023-11-21T05:30:21;98675.22;;;7.98;100.00
38939;BME280;24211;49.980;19.776;2023-11-21T05:32:48;98690.13;;;7.99;100.00
38939;BME280;24211;49.980;19.776;2023-11-21T05:35:17;98682.16;;;7.99;100.00
38939;BME280;24211;49.980;19.776;2023-11-21T05:37:54;98684.03;;;7.98;100.00
38939;BME280;24211;49.980;19.776;2023-11-21T05:40:25;98687.47;;;7.99;100.00
38939;BME280;24211;49.980;19.776;2023-11-21T05:42:59;98696.88;;;8.01;100.00
38939;BME280;24211;49.980;19.776;2023-11-21T05:45:26;98697.69;;;8.02;100.00
38939;BME280;24211;49.980;19.776;2023-11-21T05:47:58;98698.50;;;8.02;100.00
38939;BME280;24211;49.980;19.776;2023-11-21T05:50:29;98702.81;;;8.03;100.00
38939;BME280;24211;49.980;19.776;2023-11-21T05:52:57;98706.25;;;8.04;100.00
38939;BME280;24211;49.980;19.776;2023-11-21T05:55:27;98706.25;;;8.04;100.00
38939;BME280;24211;49.980;19.776;2023-11-21T05:57:54;98706.25;;;8.04;100.00
38939;BME280;24211;49.980;19.776;2023-11-21T06:00:22;98707.06;;;8.04;100.00
38939;BME280;24211;49.980;19.776;2023-11-21T06:02:49;98711.56;;;8.04;100.00
38939;BME280;24211;49.980;19.776;2023-11-21T06:05:19;98718.53;;;8.05;100.00
38939;BME280;24211;49.980;19.776;2023-11-21T06:08:12;98721.19;;;8.05;100.00
38939;BME280;24211;49.980;19.776;2023-11-21T06:10:40;98723.28;;;8.03;100.00
38939;BME280;24211;49.980;19.776;2023-11-21T06:13:07;98724.28;;;8.02;100.00
38939;BME280;24211;49.980;19.776;2023-11-21T06:15:34;98725.94;;;8.03;100.00
38939;BME280;24211;49.980;19.776;2023-11-21T06:18:02;98720.59;;;8.03;100.00
38939;BME280;24211;49.980;19.776;2023-11-21T06:20:48;98725.94;;;8.03;100.00
38939;BME280;24211;49.980;19.776;2023-11-21T06:23:18;98729.41;;;8.03;100.00
38939;BME280;24211;49.980;19.776;2023-11-21T06:25:45;98734.50;;;8.05;100.00
38939;BME280;24211;49.980;19.776;2023-11-21T06:28:12;98733.47;;;8.06;100.00
38939;BME280;24211;49.980;19.776;2023-11-21T06:30:40;98732.84;;;8.04;100.00
38939;BME280;24211;49.980;19.776;2023-11-21T06:33:07;98733.69;;;8.04;100.00
38939;BME280;24211;49.980;19.776;2023-11-21T06:35:52;98741.91;;;8.03;100.00
38939;BME280;24211;49.980;19.776;2023-11-21T06:38:20;98743.50;;;8.04;100.00
38939;BME280;24211;49.980;19.776;2023-11-21T06:40:48;98752.53;;;8.03;100.00
38939;BME280;24211;49.980;19.776;2023-11-21T06:43:20;98748.03;;;8.03;100.00
38939;BME280;24211;49.980;19.776;2023-11-21T06:45:52;98741.91;;;8.03;100.00
38939;BME280;24211;49.980;19.776;2023-11-21T06:48:20;98741.66;;;8.04;100.00
38939;BME280;24211;49.980;19.776;2023-11-21T06:50:51;98747.56;;;8.06;100.00
38939;BME280;24211;49.980;19.776;2023-11-21T06:53:42;98743.06;;;8.07;100.00
38939;BME280;24211;49.980;19.776;2023-11-21T06:56:19;98751.28;;;8.05;100.00
38939;BME280;24211;49.980;19.776;2023-11-21T06:58:49;98750.47;;;8.05;100.00
38939;BME280;24211;49.980;19.776;2023-11-21T07:01:21;98757.88;;;8.03;100.00
38939;BME280;24211;49.980;19.776;2023-11-21T07:03:49;98755.19;;;8.03;100.00
38939;BME280;24211;49.980;19.776;2023-11-21T07:06:17;98757.88;;;8.03;100.00
38939;BME280;24211;49.980;19.776;2023-11-21T07:08:49;98757.88;;;8.03;100.00
38939;BME280;24211;49.980;19.776;2023-11-21T07:11:16;98758.69;;;8.03;100.00
38939;BME280;24211;49.980;19.776;2023-11-21T07:13:44;98758.69;;;8.03;100.00
38939;BME280;24211;49.980;19.776;2023-11-21T07:16:11;98761.09;;;8.05;100.00
38939;BME280;24211;49.980;19.776;2023-11-21T07:18:39;98768.06;;;8.06;100.00
38939;BME280;24211;49.980;19.776;2023-11-21T07:21:13;98772.34;;;8.07;100.00
38939;BME280;24211;49.980;19.776;2023-11-21T07:23:42;98776.63;;;8.08;100.00
38939;BME280;24211;49.980;19.776;2023-11-21T07:26:10;98777.47;;;8.08;100.00
38939;BME280;24211;49.980;19.776;2023-11-21T07:28:37;98783.56;;;8.09;100.00
38939;BME280;24211;49.980;19.776;2023-11-21T07:31:09;98788.91;;;8.09;100.00
38939;BME280;24211;49.980;19.776;2023-11-21T07:33:37;98784.38;;;8.09;100.00
38939;BME280;24211;49.980;19.776;2023-11-21T07:36:05;98779.06;;;8.09;100.00
38939;BME280;24211;49.980;19.776;2023-11-21T07:38:33;98786.22;;;8.09;100.00
38939;BME280;24211;49.980;19.776;2023-11-21T07:41:11;98786.22;;;8.09;100.00
38939;BME280;24211;49.980;19.776;2023-11-21T07:44:03;98787.06;;;8.09;100.00
38939;BME280;24211;49.980;19.776;2023-11-21T07:46:30;98795.84;;;8.10;100.00
38939;BME280;24211;49.980;19.776;2023-11-21T07:48:57;98788.91;;;8.09;100.00
38939;BME280;24211;49.980;19.776;2023-11-21T07:51:25;98784.38;;;8.09;100.00
38939;BME280;24211;49.980;19.776;2023-11-21T07:53:52;98788.47;;;8.12;100.00
38939;BME280;24211;49.980;19.776;2023-11-21T07:56:19;98788.47;;;8.12;100.00
38939;BME280;24211;49.980;19.776;2023-11-21T07:58:59;98788.03;;;8.15;100.00
38939;BME280;24211;49.980;19.776;2023-11-21T08:14:33;98787.94;;;8.21;100.00
38939;BME280;24211;49.980;19.776;2023-11-21T08:17:01;98785.28;;;8.21;100.00
38939;BME280;24211;49.980;19.776;2023-11-21T08:20:07;98791.19;;;8.23;100.00
38939;BME280;24211;49.980;19.776;2023-11-21T08:22:36;98793.66;;;8.25;100.00
38939;BME280;24211;49.980;19.776;2023-11-21T08:25:04;98787.09;;;8.27;100.00
38939;BME280;24211;49.980;19.776;2023-11-21T08:27:32;98789.53;;;8.29;100.00
38939;BME280;24211;49.980;19.776;2023-11-21T08:33:16;98793.97;;;8.35;100.00
38939;BME280;24211;49.980;19.776;2023-11-21T08:35:44;98790.25;;;8.36;100.00
38939;BME280;24211;49.980;19.776;2023-11-21T08:38:12;98796.78;;;8.40;100.00
38939;BME280;24211;49.980;19.776;2023-11-21T08:40:39;98805.34;;;8.42;100.00
38939;BME280;24211;49.980;19.776;2023-11-21T08:43:07;98804.09;;;8.44;100.00
38939;BME280;24211;49.980;19.776;2023-11-21T08:45:35;98817.16;;;8.46;100.00
38939;BME280;24211;49.980;19.776;2023-11-21T08:48:03;98810.81;;;8.47;100.00
38939;BME280;24211;49.980;19.776;2023-11-21T08:50:37;98810.00;;;8.46;100.00
38939;BME280;24211;49.980;19.776;2023-11-21T08:53:07;98809.19;;;8.46;100.00
38939;BME280;24211;49.980;19.776;2023-11-21T08:55:36;98820.88;;;8.45;100.00
38939;BME280;24211;49.980;19.776;2023-11-21T08:58:33;98817.16;;;8.46;100.00
38939;BME280;24211;49.980;19.776;2023-11-21T09:01:02;98815.09;;;8.48;100.00
38939;BME280;24211;49.980;19.776;2023-11-21T09:03:30;98815.09;;;8.48;100.00
38939;BME280;24211;49.980;19.776;2023-11-21T09:05:59;98822.06;;;8.49;100.00
38939;BME280;24211;49.980;19.776;2023-11-21T09:08:27;98818.38;;;8.50;100.00
38939;BME280;24211;49.980;19.776;2023-11-21T09:10:57;98822.06;;;8.49;100.00
38939;BME280;24211;49.980;19.776;2023-11-21T09:13:25;98814.06;;;8.49;100.00
38939;BME280;24211;49.980;19.776;2023-11-21T09:15:53;98813.03;;;8.50;100.00
38939;BME280;24211;49.980;19.776;2023-11-21T09:18:23;98811.41;;;8.49;100.00
38939;BME280;24211;49.980;19.776;2023-11-21T09:24:22;98813.41;;;8.53;100.00
38939;BME280;24211;49.980;19.776;2023-11-21T09:27:00;98807.03;;;8.54;100.00
38939;BME280;24211;49.980;19.776;2023-11-21T09:29:52;98810.50;;;8.55;100.00
38939;BME280;24211;49.980;19.776;2023-11-21T09:32:22;98813.78;;;8.57;100.00
38939;BME280;24211;49.980;19.776;2023-11-21T09:35:09;98817.84;;;8.60;100.00
38939;BME280;24211;49.980;19.776;2023-11-21T09:37:37;98817.03;;;8.59;100.00
38939;BME280;24211;49.980;19.776;2023-11-21T09:40:10;98814.94;;;8.61;100.00
38939;BME280;24211;49.980;19.776;2023-11-21T09:42:43;98816.13;;;8.65;100.00
38939;BME280;24211;49.980;19.776;2023-11-21T09:45:25;98814.41;;;8.71;100.00
38939;BME280;24211;49.980;19.776;2023-11-21T09:47:54;98813.88;;;8.80;100.00
38939;BME280;24211;49.980;19.776;2023-11-21T09:50:30;98822.63;;;9.29;100.00
38939;BME280;24211;49.980;19.776;2023-11-21T09:53:13;98817.94;;;9.12;100.00
38939;BME280;24211;49.980;19.776;2023-11-21T09:56:14;98812.34;;;9.02;100.00
38939;BME280;24211;49.980;19.776;2023-11-21T09:58:59;98812.34;;;9.02;100.00
38939;BME280;24211;49.980;19.776;2023-11-21T10:01:36;98811.88;;;9.05;100.00
38939;BME280;24211;49.980;19.776;2023-11-21T10:04:04;98811.44;;;9.08;100.00
38939;BME280;24211;49.980;19.776;2023-11-21T10:06:41;98807.28;;;9.12;100.00
38939;BME280;24211;49.980;19.776;2023-11-21T10:09:15;98805.75;;;9.16;100.00
38939;BME280;24211;49.980;19.776;2023-11-21T10:11:43;98802.44;;;9.21;100.00
38939;BME280;24211;49.980;19.776;2023-11-21T10:14:15;98809.16;;;9.24;100.00
38939;BME280;24211;49.980;19.776;2023-11-21T10:17:17;98809.16;;;9.24;100.00
38939;BME280;24211;49.980;19.776;2023-11-21T10:19:48;98809.16;;;9.24;100.00
38939;BME280;24211;49.980;19.776;2023-11-21T10:22:18;98800.13;;;9.25;100.00
38939;BME280;24211;49.980;19.776;2023-11-21T10:24:55;98801.75;;;9.26;100.00
38939;BME280;24211;49.980;19.776;2023-11-21T10:27:23;98808.13;;;9.25;100.00
38939;BME280;24211;49.980;19.776;2023-11-21T10:29:53;98808.69;;;9.27;100.00
38939;BME280;24211;49.980;19.776;2023-11-21T10:32:49;98807.41;;;9.29;100.00
38939;BME280;24211;49.980;19.776;2023-11-21T10:35:16;98805.56;;;9.30;100.00
38939;BME280;24211;49.980;19.776;2023-11-21T10:37:44;98810.91;;;9.30;100.00
38939;BME280;24211;49.980;19.776;2023-11-21T10:40:13;98808.25;;;9.30;100.00
38939;BME280;24211;49.980;19.776;2023-11-21T10:42:41;98804.53;;;9.31;100.00
38939;BME280;24211;49.980;19.776;2023-11-21T10:45:24;98803.47;;;9.32;100.00
38939;BME280;24211;49.980;19.776;2023-11-21T10:47:59;98803.47;;;9.32;100.00
38939;BME280;24211;49.980;19.776;2023-11-21T10:50:26;98801.19;;;9.35;100.00
38939;BME280;24211;49.980;19.776;2023-11-21T10:52:57;98806.53;;;9.35;100.00
38939;BME280;24211;49.980;19.776;2023-11-21T10:55:24;98794.59;;;9.38;100.00
38939;BME280;24211;49.980;19.776;2023-11-21T10:57:53;98789.25;;;9.38;100.00
38939;BME280;24211;49.980;19.776;2023-11-21T11:00:21;98799.09;;;9.37;100.00
38939;BME280;24211;49.980;19.776;2023-11-21T11:02:51;98802.59;;;9.38;100.00
38939;BME280;24211;49.980;19.776;2023-11-21T11:05:22;98801.53;;;9.39;100.00
38939;BME280;24211;49.980;19.776;2023-11-21T11:07:55;98794.34;;;9.39;100.00
38939;BME280;24211;49.980;19.776;2023-11-21T11:10:30;98801.06;;;9.42;100.00
38939;BME280;24211;49.980;19.776;2023-11-21T11:12:59;98803.97;;;9.40;100.00
38939;BME280;24211;49.980;19.776;2023-11-21T11:15:27;98788.81;;;9.41;100.00
38939;BME280;24211;49.980;19.776;2023-11-21T11:17:55;98802.72;;;9.43;100.00
38939;BME280;24211;49.980;19.776;2023-11-21T11:20:33;98800.63;;;9.45;100.00
38939;BME280;24211;49.980;19.776;2023-11-21T11:28:11;98807.91;;;9.38;100.00
38939;BME280;24211;49.980;19.776;2023-11-21T11:30:58;98803.63;;;9.37;100.00
38939;BME280;24211;49.980;19.776;2023-11-21T11:33:39;98807.34;;;9.36;100.00
38939;BME280;24211;49.980;19.776;2023-11-21T11:38:52;98802.72;;;9.43;100.00
38939;BME280;24211;49.980;19.776;2023-11-21T11:41:28;98803.03;;;9.46;100.00
38939;BME280;24211;49.980;19.776;2023-11-21T11:43:58;98805.06;;;9.51;100.00
38939;BME280;24211;49.980;19.776;2023-11-21T11:46:46;98808.06;;;9.54;100.00
38939;BME280;24211;49.980;19.776;2023-11-21T11:49:29;98804.47;;;9.60;100.00
38939;BME280;24211;49.980;19.776;2023-11-21T11:52:31;98804.59;;;9.65;100.00
38939;BME280;24211;49.980;19.776;2023-11-21T11:54:59;98805.50;;;9.71;100.00
38939;BME280;24211;49.980;19.776;2023-11-21T11:57:30;98808.19;;;9.71;100.00
38939;BME280;24211;49.980;19.776;2023-11-21T12:00:18;98800.53;;;9.74;100.00
38939;BME280;24211;49.980;19.776;2023-11-21T12:02:54;98804.16;;;9.80;100.00
38939;BME280;24211;49.980;19.776;2023-11-21T12:05:25;98799.97;;;9.84;100.00
38939;BME280;24211;49.980;19.776;2023-11-21T12:07:56;98801.09;;;9.88;100.00
38939;BME280;24211;49.980;19.776;2023-11-21T12:10:27;98802.28;;;9.92;100.00
38939;BME280;24211;49.980;19.776;2023-11-21T12:12:57;98796.94;;;9.92;100.00
38939;BME280;24211;49.980;19.776;2023-11-21T12:15:26;98802.28;;;9.92;100.00
38939;BME280;24211;49.980;19.776;2023-11-21T12:17:56;98803.31;;;9.91;100.00
38939;BME280;24211;49.980;19.776;2023-11-21T12:20:25;98809.22;;;9.93;100.00
38939;BME280;24211;49.980;19.776;2023-11-21T12:22:58;98804.38;;;9.90;100.00
38939;BME280;24211;49.980;19.776;2023-11-21T12:25:29;98802.75;;;9.89;100.00
38939;BME280;24211;49.980;19.776;2023-11-21T12:27:59;98802.16;;;9.87;100.00
38939;BME280;24211;49.980;19.776;2023-11-21T12:30:29;98803.66;;;9.83;100.00
38939;BME280;24211;49.980;19.776;2023-11-21T12:33:09;98802.50;;;9.79;100.00
38939;BME280;24211;49.980;19.776;2023-11-21T12:35:39;98804.03;;;9.75;100.00
38939;BME280;24211;49.980;19.776;2023-11-21T12:38:14;98802.84;;;9.71;100.00
38939;BME280;24211;49.980;19.776;2023-11-21T12:40:41;98805.19;;;9.67;100.00
38939;BME280;24211;49.980;19.776;2023-11-21T12:43:08;98802.97;;;9.64;100.00
38939;BME280;24211;49.980;19.776;2023-11-21T12:45:45;98802.03;;;9.59;100.00
38939;BME280;24211;49.980;19.776;2023-11-21T12:48:13;98802.47;;;9.56;100.00
38939;BME280;24211;49.980;19.776;2023-11-21T12:50:42;98794.47;;;9.56;100.00
38939;BME280;24211;49.980;19.776;2023-11-21T12:53:11;98804.34;;;9.55;100.00
38939;BME280;24211;49.980;19.776;2023-11-21T12:55:48;98801.31;;;9.52;100.00
38939;BME280;24211;49.980;19.776;2023-11-21T12:58:20;98806.91;;;9.50;100.00
38939;BME280;24211;49.980;19.776;2023-11-21T13:00:51;98797.06;;;9.51;100.00
38939;BME280;24211;49.980;19.776;2023-11-21T13:03:26;98798.41;;;9.53;100.00
38939;BME280;24211;49.980;19.776;2023-11-21T13:06:18;98795.53;;;9.55;100.00
38939;BME280;24211;49.980;19.776;2023-11-21T13:08:52;98802.47;;;9.56;100.00
38939;BME280;24211;49.980;19.776;2023-11-21T13:11:19;98796.69;;;9.59;100.00
38939;BME280;24211;49.980;19.776;2023-11-21T13:13:46;98806.09;;;9.61;100.00
38939;BME280;24211;49.980;19.776;2023-11-21T13:16:14;98804.81;;;9.64;100.00
38939;BME280;24211;49.980;19.776;2023-11-21T13:18:44;98811.78;;;9.65;100.00
38939;BME280;24211;49.980;19.776;2023-11-21T13:21:12;98802.38;;;9.62;100.00
38939;BME280;24211;49.980;19.776;2023-11-21T13:23:42;98815.94;;;9.61;100.00
38939;BME280;24211;49.980;19.776;2023-11-21T13:26:10;98819.31;;;9.56;100.00
38939;BME280;24211;49.980;19.776;2023-11-21T13:28:39;98818.97;;;9.53;100.00
38939;BME280;24211;49.980;19.776;2023-11-21T13:31:08;98826.59;;;9.49;100.00
38939;BME280;24211;49.980;19.776;2023-11-21T13:33:50;98825.19;;;9.47;100.00
38939;BME280;24211;49.980;19.776;2023-11-21T13:36:33;98823.59;;;9.46;100.00
38939;BME280;24211;49.980;19.776;2023-11-21T13:39:03;98832.63;;;9.45;100.00
38939;BME280;24211;49.980;19.776;2023-11-21T13:41:35;98831.00;;;9.44;100.00